createdAt,value
2019-03-24T00:00:28.690Z,5.20
2019-03-24T00:01:41.014Z,5.20
2019-03-24T00:02:42.943Z,5.30
2019-03-24T00:03:47.818Z,5.30
2019-03-24T00:04:52.652Z,5.30
2019-03-24T00:05:57.518Z,5.30
2019-03-24T00:07:02.365Z,5.30
2019-03-24T00:08:07.234Z,5.30
2019-03-24T00:09:12.126Z,5.30
2019-03-24T00:10:17.118Z,5.30
2019-03-24T00:11:22.109Z,5.30
2019-03-24T00:12:27.012Z,5.30
2019-03-24T00:13:31.862Z,5.30
2019-03-24T00:14:36.814Z,5.30
2019-03-24T00:15:41.736Z,5.40
2019-03-24T00:16:46.645Z,5.30
2019-03-24T00:17:51.592Z,5.30
2019-03-24T00:18:56.533Z,5.30
2019-03-24T00:20:01.391Z,5.30
2019-03-24T00:21:06.263Z,5.30
2019-03-24T00:22:11.133Z,5.30
2019-03-24T00:23:15.977Z,5.30
2019-03-24T00:24:20.794Z,5.30
2019-03-24T00:25:25.734Z,5.30
2019-03-24T00:26:30.655Z,5.30
2019-03-24T00:27:35.499Z,5.30
2019-03-24T00:28:40.369Z,5.30
2019-03-24T00:29:45.227Z,5.30
2019-03-24T00:30:50.086Z,5.20
2019-03-24T00:31:54.916Z,5.30
2019-03-24T00:32:59.792Z,5.30
2019-03-24T00:34:04.704Z,5.20
2019-03-24T00:35:10.016Z,5.20
2019-03-24T00:36:14.936Z,5.30
2019-03-24T00:37:19.852Z,5.20
2019-03-24T00:38:24.716Z,5.20
2019-03-24T00:39:29.573Z,5.20
2019-03-24T00:40:34.510Z,5.30
2019-03-24T00:41:39.424Z,5.20
2019-03-24T00:42:44.331Z,5.20
2019-03-24T00:43:49.161Z,5.20
2019-03-24T00:44:53.988Z,5.20
2019-03-24T00:45:58.826Z,5.20
2019-03-24T00:47:03.732Z,5.20
2019-03-24T00:48:08.591Z,5.20
2019-03-24T00:49:13.440Z,5.20
2019-03-24T00:50:18.270Z,5.30
2019-03-24T00:51:23.198Z,5.20
2019-03-24T00:52:28.207Z,5.20
2019-03-24T00:53:33.060Z,5.20
2019-03-24T00:54:37.904Z,5.20
2019-03-24T00:55:42.918Z,5.20
2019-03-24T00:56:47.783Z,5.20
2019-03-24T00:57:52.652Z,5.20
2019-03-24T00:58:57.500Z,5.20
2019-03-24T01:00:02.423Z,5.20
2019-03-24T01:01:07.283Z,5.20
2019-03-24T01:02:12.111Z,5.30
2019-03-24T01:03:17.492Z,5.20
2019-03-24T01:04:22.481Z,5.20
2019-03-24T01:05:27.325Z,5.20
2019-03-24T01:06:32.157Z,5.20
2019-03-24T01:07:37.155Z,5.20
2019-03-24T01:08:42.002Z,5.30
2019-03-24T01:09:46.853Z,5.30
2019-03-24T01:10:51.695Z,5.30
2019-03-24T01:11:56.631Z,5.30
2019-03-24T01:13:01.489Z,5.30
2019-03-24T01:14:06.474Z,5.30
2019-03-24T01:15:11.479Z,5.30
2019-03-24T01:16:16.310Z,5.30
2019-03-24T01:17:21.255Z,5.30
2019-03-24T01:18:26.172Z,5.30
2019-03-24T01:19:30.992Z,5.30
2019-03-24T01:20:35.812Z,5.30
2019-03-24T01:21:40.732Z,5.30
2019-03-24T01:22:45.635Z,5.20
2019-03-24T01:23:50.500Z,5.20
2019-03-24T01:24:55.369Z,5.20
2019-03-24T01:26:00.238Z,5.30
2019-03-24T01:27:06.012Z,5.20
2019-03-24T01:28:10.908Z,5.30
2019-03-24T01:29:15.761Z,5.30
2019-03-24T01:30:21.636Z,5.30
2019-03-24T01:31:26.460Z,5.30
2019-03-24T01:32:31.305Z,5.30
2019-03-24T01:33:36.136Z,5.30
2019-03-24T01:34:41.032Z,5.30
2019-03-24T01:35:45.854Z,5.30
2019-03-24T01:36:50.671Z,5.30
2019-03-24T01:37:55.522Z,5.30
2019-03-24T01:39:00.382Z,5.30
2019-03-24T01:40:05.535Z,5.30
2019-03-24T01:41:10.420Z,5.30
2019-03-24T01:42:15.366Z,5.30
2019-03-24T01:43:20.210Z,5.30
2019-03-24T01:44:25.081Z,5.30
2019-03-24T01:45:29.973Z,5.30
2019-03-24T01:46:34.874Z,5.30
2019-03-24T01:47:39.755Z,5.30
2019-03-24T01:48:44.609Z,5.30
2019-03-24T01:49:49.518Z,5.30
2019-03-24T01:50:54.475Z,5.30
2019-03-24T01:51:59.332Z,5.30
2019-03-24T01:53:04.284Z,5.30
2019-03-24T01:54:09.171Z,5.30
2019-03-24T01:55:14.264Z,5.30
2019-03-24T01:56:19.173Z,5.30
2019-03-24T01:57:23.995Z,5.30
2019-03-24T01:58:28.836Z,5.30
2019-03-24T01:59:33.717Z,5.30
2019-03-24T02:00:38.903Z,5.30
2019-03-24T02:01:43.832Z,5.30
2019-03-24T02:02:48.705Z,5.40
2019-03-24T02:03:53.564Z,5.30
2019-03-24T02:04:58.452Z,5.30
2019-03-24T02:06:03.423Z,5.30
2019-03-24T02:07:08.313Z,5.30
2019-03-24T02:08:13.182Z,5.30
2019-03-24T02:09:18.034Z,5.30
2019-03-24T02:10:22.968Z,5.30
2019-03-24T02:11:28.041Z,5.30
2019-03-24T02:12:32.966Z,5.30
2019-03-24T02:13:37.818Z,5.30
2019-03-24T02:14:42.741Z,5.30
2019-03-24T02:15:47.575Z,5.30
2019-03-24T02:17:01.673Z,5.30
2019-03-24T02:18:25.563Z,5.30
2019-03-24T02:19:30.432Z,5.30
2019-03-24T02:20:35.304Z,5.20
2019-03-24T02:21:40.161Z,5.30
2019-03-24T02:22:45.059Z,5.20
2019-03-24T02:23:49.914Z,5.20
2019-03-24T02:24:54.758Z,5.20
2019-03-24T02:25:59.600Z,5.20
2019-03-24T02:27:04.436Z,5.20
2019-03-24T02:28:09.279Z,5.20
2019-03-24T02:29:14.111Z,5.20
2019-03-24T02:30:19.095Z,5.20
2019-03-24T02:31:23.927Z,5.20
2019-03-24T02:32:28.863Z,5.20
2019-03-24T02:33:33.724Z,5.20
2019-03-24T02:34:38.597Z,5.20
2019-03-24T02:35:43.467Z,5.20
2019-03-24T02:36:48.505Z,5.20
2019-03-24T02:37:53.353Z,5.20
2019-03-24T02:38:58.266Z,5.20
2019-03-24T02:40:03.274Z,5.20
2019-03-24T02:41:08.150Z,5.20
2019-03-24T02:42:12.985Z,5.20
2019-03-24T02:43:17.808Z,5.20
2019-03-24T02:44:22.744Z,5.20
2019-03-24T02:45:27.590Z,5.20
2019-03-24T02:46:32.527Z,5.20
2019-03-24T02:47:37.408Z,5.20
2019-03-24T02:48:42.295Z,5.20
2019-03-24T02:49:47.209Z,5.20
2019-03-24T02:50:52.072Z,5.20
2019-03-24T02:51:56.908Z,5.20
2019-03-24T02:53:01.921Z,5.20
2019-03-24T02:54:07.046Z,5.20
2019-03-24T02:55:12.052Z,5.20
2019-03-24T02:56:17.001Z,5.20
2019-03-24T02:57:21.983Z,5.20
2019-03-24T02:58:26.822Z,5.20
2019-03-24T02:59:31.697Z,5.20
2019-03-24T03:00:36.856Z,5.20
2019-03-24T03:01:41.727Z,5.20
2019-03-24T03:02:46.677Z,5.20
2019-03-24T03:03:51.513Z,5.20
2019-03-24T03:04:56.503Z,5.20
2019-03-24T03:06:01.394Z,5.20
2019-03-24T03:07:06.310Z,5.20
2019-03-24T03:08:11.183Z,5.20
2019-03-24T03:09:16.098Z,5.20
2019-03-24T03:10:21.473Z,5.20
2019-03-24T03:11:26.434Z,5.20
2019-03-24T03:12:31.341Z,5.20
2019-03-24T03:13:36.200Z,5.20
2019-03-24T03:14:41.140Z,5.20
2019-03-24T03:15:46.119Z,5.20
2019-03-24T03:16:51.032Z,5.20
2019-03-24T03:17:55.863Z,5.20
2019-03-24T03:19:00.732Z,5.20
2019-03-24T03:20:06.587Z,5.20
2019-03-24T03:21:11.506Z,5.20
2019-03-24T03:22:16.533Z,5.20
2019-03-24T03:23:21.441Z,5.20
2019-03-24T03:24:26.431Z,5.10
2019-03-24T03:25:31.345Z,5.20
2019-03-24T03:26:36.247Z,5.10
2019-03-24T03:27:41.145Z,5.10
2019-03-24T03:28:46.673Z,5.10
2019-03-24T03:29:51.494Z,5.10
2019-03-24T03:30:56.525Z,5.10
2019-03-24T03:32:01.402Z,5.10
2019-03-24T03:33:06.246Z,5.10
2019-03-24T03:34:11.176Z,5.20
2019-03-24T03:35:16.339Z,5.10
2019-03-24T03:36:21.273Z,5.10
2019-03-24T03:37:26.221Z,5.10
2019-03-24T03:38:31.230Z,5.10
2019-03-24T03:39:36.120Z,5.10
2019-03-24T03:40:41.146Z,5.10
2019-03-24T03:41:46.085Z,5.10
2019-03-24T03:42:51.072Z,5.10
2019-03-24T03:43:56.003Z,5.10
2019-03-24T03:45:00.973Z,5.10
2019-03-24T03:46:06.341Z,5.10
2019-03-24T03:47:11.199Z,5.10
2019-03-24T03:48:16.088Z,5.10
2019-03-24T03:49:21.018Z,5.10
2019-03-24T03:50:25.968Z,5.10
2019-03-24T03:51:30.890Z,5.10
2019-03-24T03:52:35.861Z,5.10
2019-03-24T03:53:40.773Z,5.10
2019-03-24T03:54:45.648Z,5.10
2019-03-24T03:55:50.526Z,5.10
2019-03-24T03:56:55.465Z,5.10
2019-03-24T03:58:00.327Z,5.10
2019-03-24T03:59:05.273Z,5.10
2019-03-24T04:00:10.500Z,5.10
2019-03-24T04:01:15.366Z,5.10
2019-03-24T04:02:20.228Z,5.00
2019-03-24T04:03:25.072Z,5.00
2019-03-24T04:04:29.923Z,5.00
2019-03-24T04:05:34.846Z,5.00
2019-03-24T04:06:39.784Z,5.00
2019-03-24T04:07:44.675Z,5.10
2019-03-24T04:08:49.545Z,5.00
2019-03-24T04:09:54.543Z,5.00
2019-03-24T04:10:59.484Z,5.00
2019-03-24T04:12:04.483Z,5.00
2019-03-24T04:13:09.367Z,5.00
2019-03-24T04:14:14.334Z,5.00
2019-03-24T04:15:19.228Z,5.00
2019-03-24T04:16:24.112Z,5.00
2019-03-24T04:17:29.014Z,5.00
2019-03-24T04:18:33.896Z,5.00
2019-03-24T04:19:38.800Z,5.00
2019-03-24T04:21:08.095Z,5.00
2019-03-24T04:22:12.937Z,5.00
2019-03-24T04:23:18.039Z,5.00
2019-03-24T04:24:22.893Z,5.00
2019-03-24T04:25:27.767Z,5.00
2019-03-24T04:26:32.600Z,5.00
2019-03-24T04:27:37.579Z,5.00
2019-03-24T04:28:42.406Z,5.00
2019-03-24T04:29:48.165Z,5.00
2019-03-24T04:30:53.044Z,5.00
2019-03-24T04:31:58.029Z,5.00
2019-03-24T04:33:02.891Z,5.00
2019-03-24T04:34:07.800Z,5.00
2019-03-24T04:35:12.826Z,5.00
2019-03-24T04:36:17.827Z,5.00
2019-03-24T04:37:22.695Z,5.00
2019-03-24T04:38:27.601Z,5.00
2019-03-24T04:39:32.486Z,5.00
2019-03-24T04:40:37.391Z,4.90
2019-03-24T04:41:42.243Z,4.90
2019-03-24T04:42:47.096Z,4.90
2019-03-24T04:43:51.965Z,4.90
2019-03-24T04:44:56.795Z,4.90
2019-03-24T04:46:01.630Z,4.90
2019-03-24T04:47:16.144Z,4.90
2019-03-24T04:48:13.127Z,5.00
2019-03-24T04:49:17.947Z,4.90
2019-03-24T04:50:22.780Z,4.90
2019-03-24T04:51:27.650Z,4.90
2019-03-24T04:52:32.534Z,4.90
2019-03-24T04:53:37.358Z,4.90
2019-03-24T04:54:42.220Z,5.00
2019-03-24T04:55:47.054Z,5.00
2019-03-24T04:56:52.112Z,5.00
2019-03-24T04:57:57.150Z,5.00
2019-03-24T04:59:02.140Z,5.00
2019-03-24T05:00:09.296Z,5.00
2019-03-24T05:01:14.183Z,5.00
2019-03-24T05:02:19.032Z,5.00
2019-03-24T05:03:23.916Z,5.00
2019-03-24T05:04:28.815Z,5.00
2019-03-24T05:05:34.323Z,5.00
2019-03-24T05:06:39.274Z,5.00
2019-03-24T05:07:44.270Z,5.00
2019-03-24T05:08:49.856Z,5.00
2019-03-24T05:09:55.067Z,5.00
2019-03-24T05:10:59.958Z,5.00
2019-03-24T05:12:04.871Z,5.00
2019-03-24T05:13:09.706Z,5.00
2019-03-24T05:14:14.691Z,5.00
2019-03-24T05:15:19.536Z,5.00
2019-03-24T05:16:24.382Z,5.00
2019-03-24T05:17:29.246Z,5.00
2019-03-24T05:18:34.169Z,5.00
2019-03-24T05:19:39.090Z,5.00
2019-03-24T05:20:43.958Z,5.00
2019-03-24T05:21:48.854Z,5.00
2019-03-24T05:22:53.862Z,5.00
2019-03-24T05:23:58.745Z,4.90
2019-03-24T05:25:03.737Z,4.90
2019-03-24T05:26:08.613Z,4.90
2019-03-24T05:27:13.454Z,4.90
2019-03-24T05:28:18.294Z,4.90
2019-03-24T05:29:23.224Z,4.90
2019-03-24T05:30:28.110Z,4.90
2019-03-24T05:31:32.979Z,4.90
2019-03-24T05:32:37.923Z,4.90
2019-03-24T05:33:42.881Z,4.90
2019-03-24T05:34:47.735Z,4.90
2019-03-24T05:35:52.619Z,4.90
2019-03-24T05:36:57.579Z,4.90
2019-03-24T05:38:02.647Z,4.90
2019-03-24T05:39:08.070Z,4.90
2019-03-24T05:40:12.977Z,4.90
2019-03-24T05:41:17.832Z,4.90
2019-03-24T05:42:22.722Z,5.00
2019-03-24T05:43:27.635Z,5.00
2019-03-24T05:44:32.564Z,5.00
2019-03-24T05:45:37.399Z,5.00
2019-03-24T05:46:42.317Z,5.00
2019-03-24T05:47:47.182Z,5.10
2019-03-24T05:48:52.078Z,5.10
2019-03-24T05:49:57.096Z,5.10
2019-03-24T05:51:02.015Z,5.10
2019-03-24T05:52:06.844Z,5.10
2019-03-24T05:53:11.757Z,5.20
2019-03-24T05:54:16.597Z,5.20
2019-03-24T05:55:21.559Z,5.20
2019-03-24T05:56:26.409Z,5.20
2019-03-24T05:57:31.390Z,5.20
2019-03-24T05:58:36.393Z,5.30
2019-03-24T05:59:41.245Z,5.30
2019-03-24T06:00:46.137Z,5.30
2019-03-24T06:01:51.091Z,5.30
2019-03-24T06:02:57.343Z,5.30
2019-03-24T06:04:02.565Z,5.30
2019-03-24T06:05:07.688Z,5.30
2019-03-24T06:06:12.699Z,5.30
2019-03-24T06:07:17.573Z,5.40
2019-03-24T06:08:22.554Z,5.40
2019-03-24T06:09:27.521Z,5.40
2019-03-24T06:10:32.418Z,5.40
2019-03-24T06:11:37.304Z,5.40
2019-03-24T06:12:42.233Z,5.40
2019-03-24T06:13:47.167Z,5.40
2019-03-24T06:14:52.088Z,5.50
2019-03-24T06:15:57.057Z,5.50
2019-03-24T06:17:02.002Z,5.50
2019-03-24T06:18:06.931Z,5.60
2019-03-24T06:19:11.856Z,5.60
2019-03-24T06:20:16.798Z,5.60
2019-03-24T06:21:21.746Z,5.70
2019-03-24T06:22:26.612Z,5.70
2019-03-24T06:23:31.555Z,5.70
2019-03-24T06:24:36.493Z,5.80
2019-03-24T06:25:41.791Z,5.80
2019-03-24T06:26:46.650Z,5.80
2019-03-24T06:27:51.542Z,5.90
2019-03-24T06:28:56.512Z,5.90
2019-03-24T06:30:01.474Z,5.90
2019-03-24T06:31:06.320Z,6.00
2019-03-24T06:32:11.164Z,6.00
2019-03-24T06:33:16.142Z,6.00
2019-03-24T06:34:21.036Z,6.10
2019-03-24T06:35:25.885Z,6.10
2019-03-24T06:36:30.759Z,6.20
2019-03-24T06:37:35.746Z,6.20
2019-03-24T06:38:40.793Z,6.20
2019-03-24T06:39:45.741Z,6.30
2019-03-24T06:40:50.650Z,6.30
2019-03-24T06:41:55.572Z,6.40
2019-03-24T06:43:00.595Z,6.40
2019-03-24T06:44:05.539Z,6.40
2019-03-24T06:45:11.166Z,6.50
2019-03-24T06:46:15.995Z,6.60
2019-03-24T06:47:20.970Z,6.60
2019-03-24T06:48:25.930Z,6.70
2019-03-24T06:49:30.854Z,6.80
2019-03-24T06:50:35.813Z,6.90
2019-03-24T06:51:40.755Z,7.00
2019-03-24T06:52:45.716Z,7.10
2019-03-24T06:53:50.569Z,7.30
2019-03-24T06:54:55.534Z,7.40
2019-03-24T06:56:00.792Z,7.40
2019-03-24T06:57:05.833Z,7.60
2019-03-24T06:58:10.709Z,7.60
2019-03-24T06:59:15.635Z,7.70
2019-03-24T07:00:20.698Z,7.70
2019-03-24T07:01:25.615Z,7.80
2019-03-24T07:02:30.515Z,7.80
2019-03-24T07:03:35.360Z,7.90
2019-03-24T07:04:40.194Z,7.90
2019-03-24T07:05:45.154Z,7.90
2019-03-24T07:06:50.034Z,7.90
2019-03-24T07:07:54.895Z,8.00
2019-03-24T07:08:59.767Z,8.00
2019-03-24T07:10:05.136Z,8.00
2019-03-24T07:11:13.630Z,8.10
2019-03-24T07:12:16.545Z,8.20
2019-03-24T07:13:21.503Z,8.20
2019-03-24T07:14:26.345Z,8.20
2019-03-24T07:15:31.296Z,8.20
2019-03-24T07:16:36.315Z,8.20
2019-03-24T07:17:41.233Z,8.20
2019-03-24T07:18:46.192Z,8.20
2019-03-24T07:19:51.114Z,8.20
2019-03-24T07:20:56.106Z,8.20
2019-03-24T07:22:01.033Z,8.20
2019-03-24T07:23:05.977Z,8.20
2019-03-24T07:24:10.902Z,8.20
2019-03-24T07:25:15.754Z,8.20
2019-03-24T07:26:20.709Z,8.20
2019-03-24T07:27:25.562Z,8.10
2019-03-24T07:28:30.430Z,8.20
2019-03-24T07:29:35.355Z,8.20
2019-03-24T07:30:40.258Z,8.20
2019-03-24T07:31:45.170Z,8.20
2019-03-24T07:32:50.036Z,8.20
2019-03-24T07:33:54.871Z,8.20
2019-03-24T07:34:59.822Z,8.20
2019-03-24T07:36:05.155Z,8.30
2019-03-24T07:37:10.003Z,8.30
2019-03-24T07:38:14.862Z,8.40
2019-03-24T07:39:19.849Z,8.40
2019-03-24T07:40:24.704Z,8.40
2019-03-24T07:41:29.647Z,8.50
2019-03-24T07:42:34.538Z,8.40
2019-03-24T07:43:39.367Z,8.40
2019-03-24T07:44:44.225Z,8.50
2019-03-24T07:45:49.070Z,8.50
2019-03-24T07:46:54.103Z,8.50
2019-03-24T07:47:59.095Z,8.50
2019-03-24T07:49:04.146Z,8.50
2019-03-24T07:50:09.826Z,8.50
2019-03-24T07:51:14.782Z,8.50
2019-03-24T07:52:19.693Z,8.50
2019-03-24T07:53:24.589Z,8.50
2019-03-24T07:54:29.515Z,8.50
2019-03-24T07:55:34.843Z,8.50
2019-03-24T07:56:39.678Z,8.40
2019-03-24T07:57:44.591Z,8.40
2019-03-24T07:58:49.435Z,8.40
2019-03-24T07:59:54.260Z,8.40
2019-03-24T08:00:59.447Z,8.40
2019-03-24T08:02:04.487Z,8.40
2019-03-24T08:03:09.346Z,8.40
2019-03-24T08:04:14.163Z,8.40
2019-03-24T08:05:19.102Z,8.40
2019-03-24T08:06:24.094Z,8.40
2019-03-24T08:07:28.938Z,8.40
2019-03-24T08:08:43.836Z,8.40
2019-03-24T08:09:40.528Z,8.40
2019-03-24T08:10:45.543Z,8.40
2019-03-24T08:11:50.547Z,8.50
2019-03-24T08:12:55.800Z,8.50
2019-03-24T08:14:00.785Z,8.50
2019-03-24T08:15:06.143Z,8.60
2019-03-24T08:16:10.963Z,8.60
2019-03-24T08:17:15.933Z,8.60
2019-03-24T08:18:29.555Z,8.70
2019-03-24T08:19:27.467Z,8.70
2019-03-24T08:20:32.312Z,8.80
2019-03-24T08:21:37.241Z,8.90
2019-03-24T08:22:42.137Z,9.00
2019-03-24T08:23:47.079Z,9.00
2019-03-24T08:24:51.946Z,9.10
2019-03-24T08:25:56.844Z,9.20
2019-03-24T08:27:01.785Z,9.20
2019-03-24T08:28:06.844Z,9.30
2019-03-24T08:29:11.764Z,9.40
2019-03-24T08:30:21.929Z,9.50
2019-03-24T08:31:26.843Z,9.50
2019-03-24T08:32:31.759Z,9.60
2019-03-24T08:33:36.675Z,9.60
2019-03-24T08:34:41.549Z,9.70
2019-03-24T08:35:46.516Z,9.80
2019-03-24T08:36:51.429Z,9.80
2019-03-24T08:37:56.308Z,9.90
2019-03-24T08:39:01.168Z,9.90
2019-03-24T08:40:06.208Z,9.90
2019-03-24T08:41:11.174Z,9.90
2019-03-24T08:42:16.315Z,9.90
2019-03-24T08:43:21.208Z,9.90
2019-03-24T08:44:26.124Z,9.90
2019-03-24T08:45:31.160Z,9.90
2019-03-24T08:46:35.985Z,9.90
2019-03-24T08:47:40.847Z,9.90
2019-03-24T08:48:45.695Z,9.90
2019-03-24T08:49:50.591Z,9.80
2019-03-24T08:50:55.555Z,9.80
2019-03-24T08:52:00.399Z,9.80
2019-03-24T08:53:05.446Z,9.90
2019-03-24T08:54:10.277Z,9.90
2019-03-24T08:55:15.187Z,9.90
2019-03-24T08:56:20.116Z,10.00
2019-03-24T08:57:25.047Z,10.00
2019-03-24T08:58:29.881Z,10.10
2019-03-24T08:59:34.795Z,10.10
2019-03-24T09:00:39.854Z,10.20
2019-03-24T09:01:44.714Z,10.30
2019-03-24T09:02:49.624Z,10.30
2019-03-24T09:03:54.547Z,10.30
2019-03-24T09:04:59.388Z,10.40
2019-03-24T09:06:04.315Z,10.30
2019-03-24T09:07:09.235Z,10.30
2019-03-24T09:08:14.205Z,10.30
2019-03-24T09:09:19.162Z,10.20
2019-03-24T09:10:24.143Z,10.20
2019-03-24T09:11:31.407Z,10.20
2019-03-24T09:12:35.629Z,10.20
2019-03-24T09:13:40.559Z,10.30
2019-03-24T09:14:45.367Z,10.40
2019-03-24T09:15:50.205Z,10.50
2019-03-24T09:16:55.125Z,10.50
2019-03-24T09:18:02.411Z,10.60
2019-03-24T09:19:24.977Z,10.70
2019-03-24T09:20:29.839Z,10.60
2019-03-24T09:21:34.839Z,10.60
2019-03-24T09:22:39.787Z,10.60
2019-03-24T09:23:44.652Z,10.70
2019-03-24T09:24:49.555Z,10.70
2019-03-24T09:25:54.534Z,10.80
2019-03-24T09:26:59.474Z,10.70
2019-03-24T09:28:04.599Z,10.70
2019-03-24T09:29:09.523Z,10.70
2019-03-24T09:30:31.035Z,10.70
2019-03-24T09:31:40.312Z,10.70
2019-03-24T09:32:45.178Z,10.70
2019-03-24T09:33:51.201Z,10.60
2019-03-24T09:34:57.646Z,10.70
2019-03-24T09:36:04.509Z,10.70
2019-03-24T09:37:09.485Z,10.70
2019-03-24T09:38:17.239Z,10.60
2019-03-24T09:39:24.062Z,10.50
2019-03-24T09:40:30.356Z,10.50
2019-03-24T09:41:35.289Z,10.40
2019-03-24T09:42:40.188Z,10.30
2019-03-24T09:43:45.243Z,10.30
2019-03-24T09:44:50.082Z,10.40
2019-03-24T09:45:56.174Z,10.40
2019-03-24T09:47:01.389Z,10.50
2019-03-24T09:48:07.542Z,10.50
2019-03-24T09:49:12.503Z,10.50
2019-03-24T09:50:17.436Z,10.60
2019-03-24T09:51:22.366Z,10.60
2019-03-24T09:52:27.210Z,10.60
2019-03-24T09:53:32.076Z,10.60
2019-03-24T09:54:38.354Z,10.60
2019-03-24T09:55:43.265Z,10.60
2019-03-24T09:56:48.114Z,10.70
2019-03-24T09:57:52.955Z,10.70
2019-03-24T09:58:57.810Z,10.80
2019-03-24T10:00:02.818Z,10.80
2019-03-24T10:01:07.649Z,10.80
2019-03-24T10:02:12.563Z,10.90
2019-03-24T10:03:17.436Z,10.90
2019-03-24T10:04:22.351Z,10.90
2019-03-24T10:05:27.285Z,10.90
2019-03-24T10:06:32.187Z,10.90
2019-03-24T10:07:37.120Z,11.00
2019-03-24T10:08:47.075Z,11.10
2019-03-24T10:09:48.482Z,11.20
2019-03-24T10:10:53.384Z,11.20
2019-03-24T10:11:58.215Z,11.20
2019-03-24T10:13:03.051Z,11.20
2019-03-24T10:14:07.880Z,11.20
2019-03-24T10:15:12.807Z,11.30
2019-03-24T10:16:17.635Z,11.40
2019-03-24T10:17:22.499Z,11.60
2019-03-24T10:18:27.337Z,11.70
2019-03-24T10:19:32.200Z,11.80
2019-03-24T10:20:37.087Z,11.90
2019-03-24T10:21:41.921Z,11.90
2019-03-24T10:22:46.771Z,11.90
2019-03-24T10:23:51.611Z,11.90
2019-03-24T10:24:56.675Z,11.90
2019-03-24T10:26:01.499Z,11.80
2019-03-24T10:27:06.402Z,11.80
2019-03-24T10:28:11.249Z,11.80
2019-03-24T10:29:16.075Z,11.70
2019-03-24T10:30:20.932Z,11.70
2019-03-24T10:31:25.794Z,11.60
2019-03-24T10:32:33.863Z,11.60
2019-03-24T10:33:38.738Z,11.60
2019-03-24T10:34:43.583Z,11.60
2019-03-24T10:35:48.472Z,11.60
2019-03-24T10:36:53.403Z,11.60
2019-03-24T10:37:58.239Z,11.50
2019-03-24T10:39:03.895Z,11.50
2019-03-24T10:40:10.089Z,11.50
2019-03-24T10:41:15.027Z,11.70
2019-03-24T10:42:23.125Z,11.90
2019-03-24T10:43:28.073Z,12.10
2019-03-24T10:44:32.918Z,12.30
2019-03-24T10:45:37.821Z,12.30
2019-03-24T10:46:42.692Z,12.40
2019-03-24T10:47:47.594Z,12.60
2019-03-24T10:48:52.442Z,12.70
2019-03-24T10:49:57.336Z,12.80
2019-03-24T10:51:02.345Z,12.90
2019-03-24T10:52:07.264Z,13.00
2019-03-24T10:53:12.101Z,13.00
2019-03-24T10:54:16.955Z,13.10
2019-03-24T10:55:21.833Z,13.10
2019-03-24T10:56:26.694Z,13.10
2019-03-24T10:57:31.521Z,13.10
2019-03-24T10:58:36.455Z,13.10
2019-03-24T10:59:41.368Z,13.20
2019-03-24T11:00:46.595Z,13.20
2019-03-24T11:01:51.505Z,13.20
2019-03-24T11:02:56.346Z,13.10
2019-03-24T11:04:01.210Z,13.10
2019-03-24T11:05:06.934Z,13.20
2019-03-24T11:06:11.875Z,13.10
2019-03-24T11:07:16.808Z,13.00
2019-03-24T11:08:21.647Z,12.90
2019-03-24T11:09:26.521Z,12.90
2019-03-24T11:10:31.339Z,12.80
2019-03-24T11:11:36.255Z,12.80
2019-03-24T11:12:41.205Z,12.70
2019-03-24T11:13:46.126Z,12.60
2019-03-24T11:14:51.052Z,12.50
2019-03-24T11:15:55.942Z,12.30
2019-03-24T11:17:00.919Z,12.20
2019-03-24T11:18:05.936Z,12.10
2019-03-24T11:19:10.783Z,12.00
2019-03-24T11:20:16.063Z,11.90
2019-03-24T11:21:20.917Z,11.80
2019-03-24T11:22:25.854Z,11.80
2019-03-24T11:23:30.728Z,11.80
2019-03-24T11:24:35.612Z,11.90
2019-03-24T11:25:40.560Z,12.00
2019-03-24T11:26:45.463Z,12.20
2019-03-24T11:27:50.288Z,12.30
2019-03-24T11:28:55.150Z,12.50
2019-03-24T11:30:00.153Z,12.70
2019-03-24T11:31:05.408Z,12.90
2019-03-24T11:32:10.296Z,13.20
2019-03-24T11:33:15.208Z,13.50
2019-03-24T11:34:20.071Z,13.80
2019-03-24T11:35:25.074Z,14.10
2019-03-24T11:36:30.141Z,14.50
2019-03-24T11:37:35.047Z,14.70
2019-03-24T11:38:39.874Z,15.10
2019-03-24T11:39:44.818Z,15.50
2019-03-24T11:40:49.682Z,15.80
2019-03-24T11:41:54.517Z,16.10
2019-03-24T11:42:59.348Z,16.50
2019-03-24T11:44:04.480Z,16.80
2019-03-24T11:45:10.471Z,17.20
2019-03-24T11:46:15.295Z,17.50
2019-03-24T11:47:26.515Z,17.80
2019-03-24T11:48:26.783Z,18.10
2019-03-24T11:49:31.670Z,18.40
2019-03-24T11:50:36.676Z,18.80
2019-03-24T11:51:41.599Z,19.10
2019-03-24T11:52:46.434Z,19.30
2019-03-24T11:53:51.326Z,19.40
2019-03-24T11:54:56.180Z,19.60
2019-03-24T11:56:01.067Z,19.70
2019-03-24T11:57:05.904Z,19.80
2019-03-24T11:58:10.757Z,19.90
2019-03-24T11:59:15.622Z,20.00
2019-03-24T12:00:28.278Z,20.10
2019-03-24T12:01:38.229Z,20.40
2019-03-24T12:02:39.699Z,20.70
2019-03-24T12:03:44.566Z,21.00
2019-03-24T12:04:49.525Z,21.40
2019-03-24T12:05:54.447Z,21.70
2019-03-24T12:06:59.363Z,22.00
2019-03-24T12:08:04.403Z,22.30
2019-03-24T12:09:09.323Z,22.70
2019-03-24T12:10:14.411Z,23.10
2019-03-24T12:11:19.240Z,23.20
2019-03-24T12:12:24.074Z,23.50
2019-03-24T12:13:28.919Z,23.30
2019-03-24T12:14:33.778Z,22.90
2019-03-24T12:15:38.646Z,22.30
2019-03-24T12:16:43.578Z,21.60
2019-03-24T12:17:48.475Z,20.80
2019-03-24T12:18:53.344Z,20.30
2019-03-24T12:19:58.184Z,20.00
2019-03-24T12:21:02.999Z,19.70
2019-03-24T12:22:07.999Z,19.10
2019-03-24T12:23:12.908Z,18.70
2019-03-24T12:24:17.742Z,18.20
2019-03-24T12:25:22.734Z,18.10
2019-03-24T12:26:27.690Z,18.40
2019-03-24T12:27:32.507Z,18.90
2019-03-24T12:28:37.412Z,19.60
2019-03-24T12:29:42.304Z,20.20
2019-03-24T12:30:47.161Z,20.90
2019-03-24T12:31:52.043Z,21.40
2019-03-24T12:32:56.955Z,21.70
2019-03-24T12:34:01.822Z,22.10
2019-03-24T12:35:07.420Z,22.50
2019-03-24T12:36:12.263Z,23.00
2019-03-24T12:37:17.235Z,23.60
2019-03-24T12:38:22.062Z,23.80
2019-03-24T12:39:26.959Z,24.40
2019-03-24T12:40:31.866Z,24.90
2019-03-24T12:41:36.694Z,25.00
2019-03-24T12:42:41.547Z,24.90
2019-03-24T12:43:47.991Z,24.80
2019-03-24T12:44:52.829Z,24.80
2019-03-24T12:45:57.720Z,25.00
2019-03-24T12:47:02.557Z,25.40
2019-03-24T12:48:07.432Z,25.40
2019-03-24T12:49:12.336Z,25.20
2019-03-24T12:50:17.247Z,24.80
2019-03-24T12:51:22.090Z,24.20
2019-03-24T12:52:26.941Z,23.50
2019-03-24T12:53:31.798Z,22.40
2019-03-24T12:54:36.660Z,21.40
2019-03-24T12:55:41.482Z,20.40
2019-03-24T12:56:46.327Z,19.90
2019-03-24T12:57:51.215Z,19.90
2019-03-24T12:58:56.134Z,20.10
2019-03-24T13:00:00.974Z,20.60
2019-03-24T13:01:05.892Z,21.10
2019-03-24T13:02:10.736Z,21.70
2019-03-24T13:03:15.583Z,22.10
2019-03-24T13:04:20.484Z,22.50
2019-03-24T13:05:25.336Z,22.80
2019-03-24T13:06:30.178Z,23.00
2019-03-24T13:07:35.183Z,23.10
2019-03-24T13:08:39.982Z,23.40
2019-03-24T13:09:44.895Z,23.40
2019-03-24T13:10:50.378Z,23.70
2019-03-24T13:11:55.212Z,23.40
2019-03-24T13:13:00.045Z,23.10
2019-03-24T13:14:05.068Z,22.70
2019-03-24T13:15:10.115Z,22.40
2019-03-24T13:16:14.976Z,21.90
2019-03-24T13:17:19.833Z,21.80
2019-03-24T13:18:24.662Z,21.70
2019-03-24T13:19:29.507Z,21.60
2019-03-24T13:20:38.283Z,21.90
2019-03-24T13:21:40.956Z,22.30
2019-03-24T13:22:45.799Z,22.60
2019-03-24T13:23:50.618Z,22.90
2019-03-24T13:24:55.462Z,23.10
2019-03-24T13:26:00.305Z,23.10
2019-03-24T13:27:05.396Z,23.20
2019-03-24T13:28:10.318Z,23.60
2019-03-24T13:29:15.153Z,23.90
2019-03-24T13:30:20.236Z,24.00
2019-03-24T13:31:25.088Z,24.30
2019-03-24T13:32:30.004Z,24.40
2019-03-24T13:33:37.707Z,24.70
2019-03-24T13:34:42.688Z,25.00
2019-03-24T13:35:50.363Z,25.10
2019-03-24T13:36:55.311Z,25.20
2019-03-24T13:38:00.260Z,25.50
2019-03-24T13:39:06.569Z,25.70
2019-03-24T13:40:11.569Z,25.40
2019-03-24T13:41:16.403Z,25.00
2019-03-24T13:42:21.232Z,24.40
2019-03-24T13:43:26.054Z,24.40
2019-03-24T13:44:30.909Z,24.70
2019-03-24T13:45:35.842Z,25.00
2019-03-24T13:46:40.705Z,25.40
2019-03-24T13:47:45.515Z,25.70
2019-03-24T13:48:50.359Z,25.80
2019-03-24T13:49:55.223Z,25.90
2019-03-24T13:51:00.149Z,26.00
2019-03-24T13:52:05.196Z,26.20
2019-03-24T13:53:10.169Z,26.50
2019-03-24T13:54:15.087Z,26.20
2019-03-24T13:55:20.031Z,25.70
2019-03-24T13:56:25.013Z,25.40
2019-03-24T13:57:29.965Z,24.90
2019-03-24T13:58:34.962Z,24.90
2019-03-24T13:59:39.879Z,24.80
2019-03-24T14:00:44.840Z,24.70
2019-03-24T14:01:49.769Z,24.80
2019-03-24T14:02:54.703Z,24.90
2019-03-24T14:03:59.528Z,24.90
2019-03-24T14:05:04.519Z,24.90
2019-03-24T14:06:09.374Z,24.80
2019-03-24T14:07:14.235Z,24.90
2019-03-24T14:08:19.077Z,24.90
2019-03-24T14:09:24.051Z,24.90
2019-03-24T14:10:28.930Z,25.00
2019-03-24T14:11:33.770Z,25.10
2019-03-24T14:12:38.598Z,25.10
2019-03-24T14:13:43.534Z,25.20
2019-03-24T14:14:48.363Z,25.30
2019-03-24T14:15:53.304Z,25.40